createdAt,value
2022-07-29T00:01:54.634Z,94960.13
2022-07-29T00:04:22.242Z,94964.63
2022-07-29T00:06:49.671Z,94955.00
2022-07-29T00:09:16.788Z,94946.16
2022-07-29T00:11:44.343Z,94954.44
2022-07-29T00:14:11.740Z,94944.31
2022-07-29T00:16:39.184Z,94950.44
2022-07-29T00:19:07.847Z,94944.31
2022-07-29T00:21:35.285Z,94955.25
2022-07-29T00:24:02.609Z,94951.50
2022-07-29T00:26:32.615Z,94949.66
2022-07-29T00:31:52.616Z,94937.31
2022-07-29T00:34:38.638Z,94933.03
2022-07-29T00:37:05.973Z,94923.16
2022-07-29T00:39:35.040Z,94925.03
2022-07-29T00:42:05.605Z,94920.19
2022-07-29T00:44:37.831Z,94930.31
2022-07-29T00:47:05.094Z,94931.63
2022-07-29T00:49:32.272Z,94922.28
2022-07-29T00:52:01.504Z,94922.56
2022-07-29T00:54:30.002Z,94923.63
2022-07-29T00:57:00.134Z,94923.88
2022-07-29T00:59:35.205Z,94927.34
2022-07-29T01:02:04.397Z,94926.00
2022-07-29T01:04:33.103Z,94921.72
2022-07-29T01:07:03.158Z,94920.94
2022-07-29T01:09:46.294Z,94914.25
2022-07-29T01:12:18.466Z,94916.16
2022-07-29T01:14:47.188Z,94923.88
2022-07-29T01:17:28.382Z,94924.44
2022-07-29T01:19:58.316Z,94916.94
2022-07-29T01:22:52.275Z,94919.06
2022-07-29T01:25:40.308Z,94915.03
2022-07-29T01:28:32.152Z,94918.75
2022-07-29T01:31:02.025Z,94910.47
2022-07-29T01:33:50.893Z,94919.78
2022-07-29T01:36:51.846Z,94916.81
2022-07-29T01:39:34.278Z,94919.44
2022-07-29T01:42:37.092Z,94914.31
2022-07-29T01:45:22.981Z,94911.34
2022-07-29T01:48:31.329Z,94913.41
2022-07-29T01:51:07.200Z,94910.44
2022-07-29T01:53:47.559Z,94911.44
2022-07-29T01:56:18.374Z,94909.53
2022-07-29T01:58:48.030Z,94903.59
2022-07-29T02:01:17.289Z,94900.09
2022-07-29T02:03:46.721Z,94905.94
2022-07-29T02:06:17.989Z,94911.47
2022-07-29T02:11:13.384Z,94909.00
2022-07-29T02:13:42.204Z,94912.97
2022-07-29T02:16:10.773Z,94912.59
2022-07-29T02:18:40.858Z,94920.84
2022-07-29T02:21:14.848Z,94928.28
2022-07-29T02:23:50.443Z,94941.53
2022-07-29T02:26:21.358Z,94945.78
2022-07-29T02:28:51.537Z,94937.75
2022-07-29T02:31:26.045Z,94937.75
2022-07-29T02:33:54.902Z,94939.84
2022-07-29T02:36:24.744Z,94935.50
2022-07-29T02:38:52.551Z,94937.63
2022-07-29T02:41:37.244Z,94940.44
2022-07-29T02:44:11.570Z,94934.56
2022-07-29T02:46:53.417Z,94937.47
2022-07-29T02:49:47.912Z,94934.25
2022-07-29T02:52:31.718Z,94933.44
2022-07-29T02:55:09.851Z,94919.34
2022-07-29T02:57:54.563Z,94919.84
2022-07-29T03:00:28.738Z,94923.56
2022-07-29T03:03:00.874Z,94922.75
2022-07-29T03:05:28.949Z,94925.66
2022-07-29T03:08:07.234Z,94923.47
2022-07-29T03:10:35.332Z,94922.13
2022-07-29T03:13:02.992Z,94923.44
2022-07-29T03:15:31.032Z,94928.50
2022-07-29T03:17:59.721Z,94927.44
2022-07-29T03:20:27.466Z,94918.16
2022-07-29T03:22:54.782Z,94912.09
2022-07-29T03:25:22.756Z,94923.88
2022-07-29T03:27:50.169Z,94920.94
2022-07-29T03:30:21.982Z,94929.81
2022-07-29T03:32:54.166Z,94927.47
2022-07-29T03:35:23.793Z,94918.41
2022-07-29T03:37:50.957Z,94918.25
2022-07-29T03:40:36.328Z,94919.84
2022-07-29T03:43:04.756Z,94916.94
2022-07-29T03:45:33.159Z,94916.13
2022-07-29T03:48:09.805Z,94919.59
2022-07-29T03:50:37.653Z,94914.53
2022-07-29T03:53:05.165Z,94909.44
2022-07-29T03:55:41.345Z,94907.34
2022-07-29T03:58:09.379Z,94901.69
2022-07-29T04:00:38.753Z,94909.94
2022-07-29T04:03:10.575Z,94903.56
2022-07-29T04:05:39.228Z,94901.41
2022-07-29T04:08:07.004Z,94909.13
2022-07-29T04:10:34.359Z,94902.22
2022-07-29T04:13:03.385Z,94911.00
2022-07-29T04:15:30.888Z,94907.84
2022-07-29T04:18:00.253Z,94913.16
2022-07-29T04:20:27.762Z,94918.28
2022-07-29T04:22:55.229Z,94911.66
2022-07-29T04:25:22.270Z,94910.16
2022-07-29T04:28:04.154Z,94909.41
2022-07-29T04:30:32.864Z,94912.16
2022-07-29T04:33:01.851Z,94911.44
2022-07-29T04:35:37.992Z,94912.06
2022-07-29T04:38:07.431Z,94907.34
2022-07-29T04:40:42.547Z,94898.91
2022-07-29T04:43:10.265Z,94900.09
2022-07-29T04:45:39.754Z,94906.03
2022-07-29T04:48:07.134Z,94909.56
2022-07-29T04:50:34.446Z,94910.72
2022-07-29T04:53:01.821Z,94904.34
2022-07-29T04:55:29.265Z,94907.59
2022-07-29T04:57:56.628Z,94912.16
2022-07-29T05:00:28.057Z,94920.19
2022-07-29T05:03:01.125Z,94908.50
2022-07-29T05:05:28.341Z,94913.63
2022-07-29T05:07:56.178Z,94912.56
2022-07-29T05:10:23.934Z,94907.00
2022-07-29T05:12:51.332Z,94912.34
2022-07-29T05:15:18.825Z,94920.66
2022-07-29T05:17:46.386Z,94917.72
2022-07-29T05:20:13.569Z,94921.22
2022-07-29T05:22:40.584Z,94917.25
2022-07-29T05:25:10.082Z,94921.25
2022-07-29T05:27:38.053Z,94919.38
2022-07-29T05:30:06.168Z,94923.97
2022-07-29T05:32:33.288Z,94926.91
2022-07-29T05:35:00.436Z,94914.88
2022-07-29T05:37:27.694Z,94908.22
2022-07-29T05:39:57.418Z,94913.53
2022-07-29T05:42:27.453Z,94922.09
2022-07-29T05:44:54.703Z,94918.88
2022-07-29T05:47:22.178Z,94930.09
2022-07-29T05:49:50.069Z,94936.75
2022-07-29T05:52:17.746Z,94931.13
2022-07-29T05:54:45.132Z,94941.88
2022-07-29T05:57:25.028Z,94949.06
2022-07-29T05:59:52.945Z,94929.81
2022-07-29T06:02:20.629Z,94942.09
2022-07-29T06:04:47.843Z,94934.31
2022-07-29T06:07:14.961Z,94943.41
2022-07-29T06:09:42.242Z,94932.16
2022-07-29T06:12:10.372Z,94937.22
2022-07-29T06:14:38.874Z,94927.84
2022-07-29T06:17:06.795Z,94931.59
2022-07-29T06:19:37.124Z,94933.72
2022-07-29T06:22:04.854Z,94923.00
2022-07-29T06:24:31.977Z,94932.59
2022-07-29T06:26:59.514Z,94945.16
2022-07-29T06:29:26.674Z,94939.22
2022-07-29T06:31:53.732Z,94941.63
2022-07-29T06:34:21.063Z,94951.72
2022-07-29T06:36:48.465Z,94945.53
2022-07-29T06:39:17.078Z,94957.28
2022-07-29T06:41:51.544Z,94954.28
2022-07-29T06:44:20.158Z,94947.81
2022-07-29T06:46:50.151Z,94949.66
2022-07-29T06:49:17.567Z,94942.66
2022-07-29T06:51:44.581Z,94940.22
2022-07-29T06:54:11.806Z,94943.97
2022-07-29T06:56:42.065Z,94954.44
2022-07-29T06:59:11.278Z,94942.13
2022-07-29T07:01:41.485Z,94937.28
2022-07-29T07:04:09.756Z,94945.59
2022-07-29T07:06:37.754Z,94941.03
2022-07-29T07:09:05.609Z,94937.28
2022-07-29T07:11:33.014Z,94949.88
2022-07-29T07:14:14.423Z,94952.25
2022-07-29T07:16:41.536Z,94949.09
2022-07-29T07:19:08.786Z,94946.13
2022-07-29T07:21:36.366Z,94941.81
2022-07-29T07:24:03.892Z,94939.69
2022-07-29T07:26:31.209Z,94944.22
2022-07-29T07:29:01.262Z,94942.34
2022-07-29T07:31:28.400Z,94942.34
2022-07-29T07:33:55.893Z,94941.53
2022-07-29T07:36:24.189Z,94947.97
2022-07-29T07:38:51.502Z,94950.06
2022-07-29T07:41:18.902Z,94950.59
2022-07-29T07:43:46.092Z,94951.38
2022-07-29T07:46:13.771Z,94955.66
2022-07-29T07:48:41.158Z,94951.31
2022-07-29T07:51:08.559Z,94955.31
2022-07-29T07:53:36.098Z,94957.16
2022-07-29T07:56:12.509Z,94960.06
2022-07-29T07:58:40.243Z,94956.81
2022-07-29T08:01:07.792Z,94953.88
2022-07-29T08:03:35.503Z,94960.56
2022-07-29T08:06:04.279Z,94957.28
2022-07-29T08:08:31.550Z,94965.56
2022-07-29T08:11:02.248Z,94970.91
2022-07-29T08:13:33.072Z,94975.41
2022-07-29T08:16:12.565Z,94978.88
2022-07-29T08:18:42.141Z,94976.66
2022-07-29T08:21:09.574Z,94971.22
2022-07-29T08:23:46.880Z,94975.75
2022-07-29T08:26:15.292Z,94980.00
2022-07-29T08:28:51.187Z,94974.88
2022-07-29T08:31:19.209Z,94967.91
2022-07-29T08:33:46.841Z,94979.41
2022-07-29T08:36:14.476Z,94977.00
2022-07-29T08:38:41.721Z,94972.13
2022-07-29T08:41:08.788Z,94976.13
2022-07-29T08:43:38.653Z,94975.88
2022-07-29T08:46:05.744Z,94983.09
2022-07-29T08:48:33.628Z,94984.41
2022-07-29T08:51:01.589Z,94987.09
2022-07-29T08:53:30.491Z,94980.94
2022-07-29T08:55:59.010Z,94980.94
2022-07-29T08:58:28.041Z,94979.56
2022-07-29T09:00:58.228Z,94983.84
2022-07-29T09:03:31.335Z,94986.84
2022-07-29T09:06:00.515Z,94987.63
2022-07-29T09:08:28.536Z,94991.63
2022-07-29T09:10:59.395Z,94990.53
2022-07-29T09:13:27.228Z,94989.97
2022-07-29T09:15:54.923Z,94991.78
2022-07-29T09:18:37.405Z,94992.53
2022-07-29T09:21:25.893Z,94994.38
2022-07-29T09:24:11.230Z,94999.63
2022-07-29T09:26:46.391Z,94985.31
2022-07-29T09:29:17.388Z,94997.28
2022-07-29T09:31:49.017Z,94992.09
2022-07-29T09:34:22.762Z,94990.09
2022-07-29T09:36:51.829Z,94994.06
2022-07-29T09:39:36.918Z,94992.31
2022-07-29T09:42:07.001Z,94986.78
2022-07-29T09:44:47.635Z,94989.53
2022-07-29T09:47:15.338Z,94989.66
2022-07-29T09:50:01.401Z,94987.81
2022-07-29T09:52:30.663Z,94983.03
2022-07-29T09:55:09.134Z,94986.66
2022-07-29T09:57:37.365Z,94976.50
2022-07-29T10:00:09.060Z,94973.94
2022-07-29T10:02:45.017Z,94978.63
2022-07-29T10:05:36.056Z,94982.47
2022-07-29T10:08:04.787Z,94981.78
2022-07-29T10:10:35.340Z,94978.28
2022-07-29T10:13:09.933Z,94981.47
2022-07-29T10:15:46.332Z,94974.69
2022-07-29T10:18:15.702Z,94966.31
2022-07-29T10:20:42.874Z,94972.94
2022-07-29T10:23:10.639Z,94963.50
2022-07-29T10:25:38.027Z,94972.38
2022-07-29T10:28:07.193Z,94969.53
2022-07-29T10:30:34.976Z,94978.59
2022-07-29T10:33:38.767Z,94972.47
2022-07-29T10:36:20.333Z,94971.22
2022-07-29T10:39:41.749Z,94971.72
2022-07-29T10:42:33.333Z,94967.97
2022-07-29T10:45:04.326Z,94966.41
2022-07-29T10:47:32.407Z,94967.28
2022-07-29T10:50:07.463Z,94962.25
2022-07-29T10:52:55.305Z,94962.59
2022-07-29T10:55:43.417Z,94960.88
2022-07-29T10:58:19.820Z,94955.63
2022-07-29T11:00:50.207Z,94952.00
2022-07-29T11:03:52.335Z,94953.47
2022-07-29T11:06:26.325Z,94954.59
2022-07-29T11:09:34.789Z,94962.09
2022-07-29T11:12:25.889Z,94961.53
2022-07-29T11:15:02.618Z,94953.28
2022-07-29T11:17:37.577Z,94952.97
2022-07-29T11:20:33.896Z,94945.03
2022-07-29T11:23:02.043Z,94944.56
2022-07-29T11:25:50.711Z,94943.44
2022-07-29T11:28:23.144Z,94945.41
2022-07-29T11:30:54.859Z,94949.19
2022-07-29T11:33:54.458Z,94948.75
2022-07-29T11:36:28.183Z,94947.28
2022-07-29T11:39:26.868Z,94951.72
2022-07-29T11:42:28.523Z,94952.53
2022-07-29T11:48:03.648Z,94945.84
2022-07-29T11:50:36.932Z,94940.03
2022-07-29T11:53:13.257Z,94949.97
2022-07-29T11:55:50.772Z,94940.03
2022-07-29T11:58:26.249Z,94944.13
2022-07-29T12:00:55.496Z,94930.22
2022-07-29T12:03:33.438Z,94930.03
2022-07-29T12:06:14.019Z,94934.06
2022-07-29T12:07:02.022Z,94951.50
2022-07-29T12:08:44.322Z,94935.25
2022-07-29T12:11:23.419Z,94939.28
2022-07-29T12:13:54.713Z,94932.31
2022-07-29T12:16:25.530Z,94936.66
2022-07-29T12:18:58.762Z,94930.69
2022-07-29T12:21:26.772Z,94930.06
2022-07-29T12:24:04.829Z,94928.56
2022-07-29T12:26:36.360Z,94927.66
2022-07-29T12:29:04.505Z,94926.09
2022-07-29T12:31:43.379Z,94914.47
2022-07-29T12:34:15.039Z,94916.25
2022-07-29T12:36:44.047Z,94914.69
2022-07-29T12:39:13.384Z,94920.03
2022-07-29T12:41:40.926Z,94918.94
2022-07-29T12:44:08.103Z,94909.56
2022-07-29T12:46:35.290Z,94910.03
2022-07-29T12:49:04.532Z,94906.06
2022-07-29T12:51:37.738Z,94903.84
2022-07-29T12:54:06.600Z,94902.22
2022-07-29T12:56:43.297Z,94903.78
2022-07-29T12:59:20.472Z,94907.09
2022-07-29T13:01:50.848Z,94912.28
2022-07-29T13:04:37.490Z,94909.19
2022-07-29T13:07:08.209Z,94910.88
2022-07-29T13:09:48.834Z,94907.94
2022-07-29T13:12:16.316Z,94902.28
2022-07-29T13:14:48.933Z,94885.28
2022-07-29T13:17:23.833Z,94896.84
2022-07-29T13:20:10.257Z,94898.28
2022-07-29T13:22:37.706Z,94884.09
2022-07-29T13:25:07.715Z,94885.38
2022-07-29T13:27:38.304Z,94875.75
2022-07-29T13:30:09.387Z,94870.94
2022-07-29T13:32:37.649Z,94865.97
2022-07-29T13:35:08.958Z,94862.97
2022-07-29T13:37:39.609Z,94869.47
2022-07-29T13:40:10.323Z,94866.38
2022-07-29T13:42:37.768Z,94866.97
2022-07-29T13:45:07.550Z,94877.19
2022-07-29T13:47:34.815Z,94877.09
2022-07-29T13:50:02.983Z,94879.78
2022-07-29T13:52:30.417Z,94862.88
2022-07-29T13:54:57.594Z,94858.72
2022-07-29T13:57:25.097Z,94849.59
2022-07-29T13:59:54.382Z,94854.28
2022-07-29T14:02:25.648Z,94858.03
2022-07-29T14:04:56.607Z,94850.91
2022-07-29T14:07:24.346Z,94842.28
2022-07-29T14:09:52.137Z,94847.81
2022-07-29T14:12:20.025Z,94857.38
2022-07-29T14:14:47.522Z,94848.50
2022-07-29T14:17:15.948Z,94850.31
2022-07-29T14:19:43.826Z,94853.28
2022-07-29T14:22:11.045Z,94846.81
2022-07-29T14:24:39.177Z,94848.50
2022-07-29T14:27:08.859Z,94848.72
2022-07-29T14:29:39.055Z,94848.44
2022-07-29T14:32:15.818Z,94849.88
2022-07-29T14:34:43.521Z,94844.63
2022-07-29T14:37:10.808Z,94840.16
2022-07-29T14:39:43.579Z,94836.47
2022-07-29T14:42:12.714Z,94843.56
2022-07-29T14:44:42.571Z,94833.31
2022-07-29T14:47:10.381Z,94837.38
2022-07-29T14:49:38.242Z,94829.66
2022-07-29T14:52:05.872Z,94833.91
2022-07-29T14:54:33.477Z,94827.28
2022-07-29T14:57:01.282Z,94817.22
2022-07-29T14:59:28.694Z,94824.47
2022-07-29T15:01:56.381Z,94827.56
2022-07-29T15:04:24.052Z,94824.69
2022-07-29T15:06:51.521Z,94815.44
2022-07-29T15:09:18.999Z,94809.63
2022-07-29T15:11:46.134Z,94812.03
2022-07-29T15:14:13.169Z,94804.16
2022-07-29T15:16:41.967Z,94801.78
2022-07-29T15:19:11.565Z,94800.22
2022-07-29T15:21:41.611Z,94803.06
2022-07-29T15:24:17.474Z,94790.81
2022-07-29T15:26:45.026Z,94791.28
2022-07-29T15:29:12.291Z,94787.94
2022-07-29T15:31:39.386Z,94793.38
2022-07-29T15:34:07.735Z,94789.06
2022-07-29T15:36:51.357Z,94780.41
2022-07-29T15:39:21.985Z,94777.59
2022-07-29T15:41:49.696Z,94773.09
2022-07-29T15:44:16.832Z,94770.28
2022-07-29T15:47:02.518Z,94772.34
2022-07-29T15:49:47.887Z,94763.69
2022-07-29T15:52:26.052Z,94768.69
2022-07-29T15:54:55.620Z,94758.97
2022-07-29T15:57:23.671Z,94760.72
2022-07-29T15:59:51.317Z,94757.72
2022-07-29T16:02:18.640Z,94749.84
2022-07-29T16:04:45.842Z,94754.25
2022-07-29T16:07:14.176Z,94751.13
2022-07-29T16:09:42.801Z,94744.63
2022-07-29T16:12:15.398Z,94744.09
2022-07-29T16:14:44.363Z,94750.72
2022-07-29T16:17:14.895Z,94747.97
2022-07-29T16:19:44.092Z,94749.09
2022-07-29T16:22:11.998Z,94753.72
2022-07-29T16:24:39.527Z,94746.81
2022-07-29T16:27:07.051Z,94740.13
2022-07-29T16:29:34.303Z,94748.56
2022-07-29T16:32:01.901Z,94748.69
2022-07-29T16:34:29.769Z,94743.50
2022-07-29T16:36:57.088Z,94738.38
2022-07-29T16:39:24.265Z,94751.78
2022-07-29T16:41:51.491Z,94745.41
2022-07-29T16:44:18.634Z,94746.41
2022-07-29T16:46:45.872Z,94746.59
2022-07-29T16:49:19.090Z,94738.84
2022-07-29T16:51:47.957Z,94736.25
2022-07-29T16:54:15.391Z,94738.38
2022-07-29T16:56:42.524Z,94738.84
2022-07-29T16:59:09.627Z,94740.13
2022-07-29T17:01:37.299Z,94738.66
2022-07-29T17:04:07.185Z,94741.03
2022-07-29T17:06:40.487Z,94738.75
2022-07-29T17:09:09.949Z,94747.47
2022-07-29T17:11:51.684Z,94745.03
2022-07-29T17:14:26.898Z,94744.78
2022-07-29T17:17:01.030Z,94743.97
2022-07-29T17:19:35.471Z,94752.63
2022-07-29T17:22:11.615Z,94750.00
2022-07-29T17:24:41.090Z,94751.66
2022-07-29T17:27:09.481Z,94748.84
2022-07-29T17:29:37.019Z,94747.16
2022-07-29T17:32:07.772Z,94758.03
2022-07-29T17:34:41.112Z,94746.34
2022-07-29T17:37:12.190Z,94739.41
2022-07-29T17:39:41.726Z,94742.59
2022-07-29T17:42:11.128Z,94730.22
2022-07-29T17:44:38.817Z,94730.75
2022-07-29T17:47:07.925Z,94733.41
2022-07-29T17:49:44.293Z,94733.50
2022-07-29T17:52:11.431Z,94737.44
2022-07-29T17:54:38.543Z,94739.34
2022-07-29T17:57:05.617Z,94735.28
2022-07-29T17:59:32.859Z,94742.38
2022-07-29T18:02:00.225Z,94745.88
2022-07-29T18:04:28.914Z,94742.41
2022-07-29T18:06:56.511Z,94745.56
2022-07-29T18:09:23.909Z,94733.13
2022-07-29T18:11:51.977Z,94740.31
2022-07-29T18:14:19.200Z,94740.50
2022-07-29T18:16:47.586Z,94750.03
2022-07-29T18:19:14.778Z,94746.63
2022-07-29T18:21:53.874Z,94755.69
2022-07-29T18:24:27.459Z,94746.44
2022-07-29T18:26:54.824Z,94751.22
2022-07-29T18:29:22.214Z,94752.72
2022-07-29T18:31:49.545Z,94758.56
2022-07-29T18:34:17.244Z,94760.19
2022-07-29T18:36:45.920Z,94760.53
2022-07-29T18:39:20.998Z,94763.78
2022-07-29T18:41:51.257Z,94766.50
2022-07-29T18:44:21.691Z,94766.50
2022-07-29T18:46:50.167Z,94764.59
2022-07-29T18:49:17.807Z,94757.59
2022-07-29T18:51:44.907Z,94767.75
2022-07-29T18:54:13.428Z,94755.59
2022-07-29T18:56:41.599Z,94764.16
2022-07-29T18:59:08.833Z,94779.19
2022-07-29T19:01:37.087Z,94778.03
2022-07-29T19:04:05.493Z,94787.81
2022-07-29T19:06:32.853Z,94781.22
2022-07-29T19:09:00.521Z,94793.19
2022-07-29T19:11:27.712Z,94802.28
2022-07-29T19:13:55.155Z,94818.31
2022-07-29T19:16:22.522Z,94812.09
2022-07-29T19:18:49.638Z,94816.13
2022-07-29T19:21:17.390Z,94813.56
2022-07-29T19:24:01.845Z,94805.56
2022-07-29T19:26:33.420Z,94806.47
2022-07-29T19:29:00.488Z,94818.06
2022-07-29T19:31:28.133Z,94828.22
2022-07-29T19:33:55.422Z,94825.22
2022-07-29T19:36:22.892Z,94823.06
2022-07-29T19:38:50.027Z,94819.75
2022-07-29T19:41:17.290Z,94811.66
2022-07-29T19:43:51.993Z,94814.78
2022-07-29T19:46:21.645Z,94812.84
2022-07-29T19:48:49.389Z,94824.22
2022-07-29T19:51:17.285Z,94825.47
2022-07-29T19:53:44.454Z,94830.72
2022-07-29T19:56:11.802Z,94821.41
2022-07-29T19:58:40.703Z,94825.25
2022-07-29T20:01:10.617Z,94812.97
2022-07-29T20:03:39.998Z,94813.28
2022-07-29T20:06:08.093Z,94821.91
2022-07-29T20:08:35.490Z,94826.47
2022-07-29T20:11:03.446Z,94828.38
2022-07-29T20:13:32.984Z,94830.56
2022-07-29T20:16:01.212Z,94836.22
2022-07-29T20:18:28.484Z,94831.72
2022-07-29T20:20:57.560Z,94829.66
2022-07-29T20:23:24.986Z,94839.31
2022-07-29T20:25:52.633Z,94833.47
2022-07-29T20:28:28.526Z,94848.78
2022-07-29T20:30:55.784Z,94841.59
2022-07-29T20:33:22.929Z,94841.13
2022-07-29T20:35:50.230Z,94845.69
2022-07-29T20:38:18.473Z,94840.91
2022-07-29T20:40:46.318Z,94844.16
2022-07-29T20:43:13.623Z,94845.50
2022-07-29T20:45:40.990Z,94843.44
2022-07-29T20:48:08.575Z,94850.16
2022-07-29T20:50:35.894Z,94847.25
2022-07-29T20:53:03.415Z,94847.81
2022-07-29T20:55:31.943Z,94845.72
2022-07-29T20:57:59.475Z,94844.09
2022-07-29T21:00:26.796Z,94836.31
2022-07-29T21:02:54.302Z,94846.25
2022-07-29T21:05:21.365Z,94852.41
2022-07-29T21:07:48.539Z,94849.22
2022-07-29T21:10:18.169Z,94858.06
2022-07-29T21:12:49.270Z,94886.56
2022-07-29T21:15:16.876Z,94888.06
2022-07-29T21:17:47.234Z,94894.03
2022-07-29T21:20:19.453Z,94912.03
2022-07-29T21:22:46.789Z,94907.84
2022-07-29T21:25:13.985Z,94906.84
2022-07-29T21:27:59.921Z,94905.56
2022-07-29T21:30:28.084Z,94907.22
2022-07-29T21:32:55.543Z,94908.06
2022-07-29T21:35:52.163Z,94913.19
2022-07-29T21:38:09.957Z,94898.47
2022-07-29T21:40:37.335Z,94905.13
2022-07-29T21:43:05.010Z,94907.00
2022-07-29T21:45:32.329Z,94901.13
2022-07-29T21:47:59.684Z,94906.75
2022-07-29T21:50:27.028Z,94902.50
2022-07-29T21:52:54.385Z,94888.34
2022-07-29T21:55:23.010Z,94894.81
2022-07-29T21:57:56.621Z,94900.50
2022-07-29T22:00:25.570Z,94894.16
2022-07-29T22:02:56.009Z,94901.41
2022-07-29T22:05:24.052Z,94889.66
2022-07-29T22:07:55.568Z,94887.00
2022-07-29T22:10:26.957Z,94884.06
2022-07-29T22:12:56.494Z,94878.75
2022-07-29T22:15:24.513Z,94892.38
2022-07-29T22:17:52.327Z,94894.56
2022-07-29T22:20:20.265Z,94886.00
2022-07-29T22:22:48.208Z,94884.13
2022-07-29T22:25:16.898Z,94883.59
2022-07-29T22:27:44.241Z,94870.50
2022-07-29T22:30:12.114Z,94869.16
2022-07-29T22:32:39.442Z,94866.25
2022-07-29T22:35:07.200Z,94869.16
2022-07-29T22:37:34.377Z,94868.63
2022-07-29T22:40:02.177Z,94862.75
2022-07-29T22:42:31.733Z,94862.75
2022-07-29T22:44:58.672Z,94855.50
2022-07-29T22:47:46.679Z,94860.31
2022-07-29T22:50:13.033Z,94877.16
2022-07-29T22:52:40.337Z,94889.72
2022-07-29T22:55:07.783Z,94889.75
2022-07-29T22:57:34.869Z,94892.69
2022-07-29T23:00:02.631Z,94906.59
2022-07-29T23:02:29.894Z,94899.06
2022-07-29T23:04:57.213Z,94920.44
2022-07-29T23:07:24.629Z,94919.59
2022-07-29T23:09:51.957Z,94915.00
2022-07-29T23:12:19.048Z,94914.84
2022-07-29T23:14:46.298Z,94917.13
2022-07-29T23:17:13.627Z,94929.09
2022-07-29T23:19:41.120Z,94932.69
2022-07-29T23:22:08.481Z,94943.34
2022-07-29T23:24:35.421Z,94958.78
2022-07-29T23:27:02.850Z,94957.44
2022-07-29T23:29:32.803Z,94953.72
2022-07-29T23:32:03.581Z,94953.97
2022-07-29T23:34:30.676Z,94949.69
2022-07-29T23:36:57.846Z,94942.19
2022-07-29T23:39:24.886Z,94922.91
2022-07-29T23:41:52.628Z,94927.44
2022-07-29T23:44:19.930Z,94915.59
2022-07-29T23:46:46.990Z,94912.63
2022-07-29T23:49:14.497Z,94916.31
2022-07-29T23:51:41.589Z,94911.25
2022-07-29T23:54:08.689Z,94900.59
2022-07-29T23:56:35.915Z,94893.34
2022-07-29T23:59:05.720Z,94896.19
